sensor_id;sensor_type;location;lat;lon;timestamp;P1;durP1;ratioP1;P2;durP2;ratioP2
76795;SDS011;65745;50.278;18.192;2023-05-28T00:00:25;12.00;;;7.20;;
76795;SDS011;65745;50.278;18.192;2023-05-28T00:03:17;13.40;;;8.40;;
76795;SDS011;65745;50.278;18.192;2023-05-28T00:05:50;11.40;;;7.80;;
76795;SDS011;65745;50.278;18.192;2023-05-28T00:08:22;15.80;;;8.20;;
76795;SDS011;65745;50.278;18.192;2023-05-28T00:10:55;12.20;;;8.10;;
76795;SDS011;65745;50.278;18.192;2023-05-28T00:13:29;15.30;;;8.50;;
76795;SDS011;65745;50.278;18.192;2023-05-28T00:16:01;11.90;;;7.50;;
76795;SDS011;65745;50.278;18.192;2023-05-28T00:18:33;10.30;;;7.00;;
76795;SDS011;65745;50.278;18.192;2023-05-28T00:21:05;10.30;;;7.10;;
76795;SDS011;65745;50.278;18.192;2023-05-28T00:23:37;10.00;;;6.70;;
76795;SDS011;65745;50.278;18.192;2023-05-28T00:26:10;9.80;;;6.50;;
76795;SDS011;65745;50.278;18.192;2023-05-28T00:28:43;13.20;;;6.50;;
76795;SDS011;65745;50.278;18.192;2023-05-28T00:31:16;10.90;;;6.60;;
76795;SDS011;65745;50.278;18.192;2023-05-28T00:33:48;9.10;;;7.00;;
76795;SDS011;65745;50.278;18.192;2023-05-28T00:36:20;9.90;;;6.50;;
76795;SDS011;65745;50.278;18.192;2023-05-28T00:38:53;9.80;;;7.00;;
76795;SDS011;65745;50.278;18.192;2023-05-28T00:41:25;12.10;;;7.60;;
76795;SDS011;65745;50.278;18.192;2023-05-28T00:43:59;8.40;;;5.40;;
76795;SDS011;65745;50.278;18.192;2023-05-28T00:46:32;13.70;;;7.60;;
76795;SDS011;65745;50.278;18.192;2023-05-28T00:49:04;8.80;;;6.00;;
76795;SDS011;65745;50.278;18.192;2023-05-28T00:51:37;8.60;;;6.50;;
76795;SDS011;65745;50.278;18.192;2023-05-28T00:54:11;10.80;;;6.60;;
76795;SDS011;65745;50.278;18.192;2023-05-28T00:56:43;9.70;;;7.80;;
76795;SDS011;65745;50.278;18.192;2023-05-28T00:59:16;9.00;;;6.10;;
76795;SDS011;65745;50.278;18.192;2023-05-28T01:01:48;9.80;;;6.00;;
76795;SDS011;65745;50.278;18.192;2023-05-28T01:04:20;9.30;;;6.10;;
76795;SDS011;65745;50.278;18.192;2023-05-28T01:06:53;10.20;;;6.50;;
76795;SDS011;65745;50.278;18.192;2023-05-28T01:09:27;8.20;;;5.80;;
76795;SDS011;65745;50.278;18.192;2023-05-28T01:11:59;12.40;;;6.40;;
76795;SDS011;65745;50.278;18.192;2023-05-28T01:14:33;8.30;;;5.90;;
76795;SDS011;65745;50.278;18.192;2023-05-28T01:17:07;9.50;;;6.20;;
76795;SDS011;65745;50.278;18.192;2023-05-28T01:19:40;8.90;;;6.10;;
76795;SDS011;65745;50.278;18.192;2023-05-28T01:22:18;7.90;;;5.50;;
76795;SDS011;65745;50.278;18.192;2023-05-28T01:24:52;8.50;;;6.70;;
76795;SDS011;65745;50.278;18.192;2023-05-28T01:27:24;9.20;;;5.90;;
76795;SDS011;65745;50.278;18.192;2023-05-28T01:29:57;11.80;;;6.30;;
76795;SDS011;65745;50.278;18.192;2023-05-28T01:32:30;9.70;;;6.00;;
76795;SDS011;65745;50.278;18.192;2023-05-28T01:35:02;10.20;;;7.00;;
76795;SDS011;65745;50.278;18.192;2023-05-28T01:37:37;13.30;;;6.90;;
76795;SDS011;65745;50.278;18.192;2023-05-28T01:40:13;10.70;;;6.30;;
76795;SDS011;65745;50.278;18.192;2023-05-28T01:42:47;9.10;;;5.80;;
76795;SDS011;65745;50.278;18.192;2023-05-28T01:45:24;9.60;;;6.30;;
76795;SDS011;65745;50.278;18.192;2023-05-28T01:47:58;8.40;;;6.20;;
76795;SDS011;65745;50.278;18.192;2023-05-28T01:50:31;9.80;;;6.40;;
76795;SDS011;65745;50.278;18.192;2023-05-28T01:53:03;11.00;;;6.60;;
76795;SDS011;65745;50.278;18.192;2023-05-28T01:55:36;10.50;;;7.10;;
76795;SDS011;65745;50.278;18.192;2023-05-28T01:58:08;9.60;;;5.90;;
76795;SDS011;65745;50.278;18.192;2023-05-28T02:00:41;9.80;;;6.00;;
76795;SDS011;65745;50.278;18.192;2023-05-28T02:03:20;9.20;;;5.50;;
76795;SDS011;65745;50.278;18.192;2023-05-28T02:05:52;8.40;;;5.30;;
76795;SDS011;65745;50.278;18.192;2023-05-28T02:08:24;7.90;;;5.80;;
76795;SDS011;65745;50.278;18.192;2023-05-28T02:10:57;11.00;;;6.70;;
76795;SDS011;65745;50.278;18.192;2023-05-28T02:13:29;8.10;;;5.80;;
76795;SDS011;65745;50.278;18.192;2023-05-28T02:16:01;8.60;;;5.80;;
76795;SDS011;65745;50.278;18.192;2023-05-28T02:18:35;7.70;;;6.00;;
76795;SDS011;65745;50.278;18.192;2023-05-28T02:21:09;9.40;;;5.80;;
76795;SDS011;65745;50.278;18.192;2023-05-28T02:23:42;12.30;;;6.50;;
76795;SDS011;65745;50.278;18.192;2023-05-28T02:26:18;9.90;;;6.00;;
76795;SDS011;65745;50.278;18.192;2023-05-28T02:28:51;9.10;;;6.20;;
76795;SDS011;65745;50.278;18.192;2023-05-28T02:31:23;9.30;;;5.90;;
76795;SDS011;65745;50.278;18.192;2023-05-28T02:33:55;11.30;;;7.10;;
76795;SDS011;65745;50.278;18.192;2023-05-28T02:36:28;8.50;;;5.60;;
76795;SDS011;65745;50.278;18.192;2023-05-28T02:39:02;9.70;;;6.20;;
76795;SDS011;65745;50.278;18.192;2023-05-28T02:41:36;10.80;;;6.40;;
76795;SDS011;65745;50.278;18.192;2023-05-28T02:44:08;7.80;;;5.80;;
76795;SDS011;65745;50.278;18.192;2023-05-28T02:46:40;10.80;;;6.30;;
76795;SDS011;65745;50.278;18.192;2023-05-28T02:49:13;10.60;;;6.90;;
76795;SDS011;65745;50.278;18.192;2023-05-28T02:51:45;8.60;;;6.20;;
76795;SDS011;65745;50.278;18.192;2023-05-28T02:54:29;8.10;;;5.10;;
76795;SDS011;65745;50.278;18.192;2023-05-28T02:57:01;9.20;;;5.70;;
76795;SDS011;65745;50.278;18.192;2023-05-28T02:59:34;8.80;;;5.20;;
76795;SDS011;65745;50.278;18.192;2023-05-28T03:02:06;7.30;;;5.50;;
76795;SDS011;65745;50.278;18.192;2023-05-28T03:04:39;7.50;;;5.70;;
76795;SDS011;65745;50.278;18.192;2023-05-28T03:07:12;7.10;;;5.70;;
76795;SDS011;65745;50.278;18.192;2023-05-28T03:09:45;7.70;;;5.60;;
76795;SDS011;65745;50.278;18.192;2023-05-28T03:12:18;8.70;;;4.80;;
76795;SDS011;65745;50.278;18.192;2023-05-28T03:14:50;9.10;;;6.20;;
76795;SDS011;65745;50.278;18.192;2023-05-28T03:17:23;10.00;;;5.80;;
76795;SDS011;65745;50.278;18.192;2023-05-28T03:19:55;11.30;;;6.70;;
76795;SDS011;65745;50.278;18.192;2023-05-28T03:22:27;9.40;;;5.60;;
76795;SDS011;65745;50.278;18.192;2023-05-28T03:25:00;8.80;;;5.70;;
76795;SDS011;65745;50.278;18.192;2023-05-28T03:27:32;8.80;;;5.40;;
76795;SDS011;65745;50.278;18.192;2023-05-28T03:30:05;8.60;;;5.70;;
76795;SDS011;65745;50.278;18.192;2023-05-28T03:32:49;7.40;;;5.60;;
76795;SDS011;65745;50.278;18.192;2023-05-28T03:35:22;9.20;;;6.40;;
76795;SDS011;65745;50.278;18.192;2023-05-28T03:37:54;8.70;;;5.30;;
76795;SDS011;65745;50.278;18.192;2023-05-28T03:40:26;9.40;;;5.50;;
76795;SDS011;65745;50.278;18.192;2023-05-28T03:43:00;10.00;;;5.40;;
76795;SDS011;65745;50.278;18.192;2023-05-28T03:45:34;8.30;;;5.20;;
76795;SDS011;65745;50.278;18.192;2023-05-28T03:48:06;6.60;;;5.30;;
76795;SDS011;65745;50.278;18.192;2023-05-28T03:50:40;7.90;;;5.40;;
76795;SDS011;65745;50.278;18.192;2023-05-28T03:53:12;7.10;;;5.50;;
76795;SDS011;65745;50.278;18.192;2023-05-28T03:55:44;11.10;;;5.60;;
76795;SDS011;65745;50.278;18.192;2023-05-28T03:58:16;8.20;;;5.10;;
76795;SDS011;65745;50.278;18.192;2023-05-28T04:00:50;7.80;;;5.40;;
76795;SDS011;65745;50.278;18.192;2023-05-28T04:03:22;9.60;;;5.20;;
76795;SDS011;65745;50.278;18.192;2023-05-28T04:05:55;7.10;;;5.40;;
76795;SDS011;65745;50.278;18.192;2023-05-28T04:08:27;8.70;;;5.40;;
76795;SDS011;65745;50.278;18.192;2023-05-28T04:10:59;6.70;;;4.90;;
76795;SDS011;65745;50.278;18.192;2023-05-28T04:13:31;9.70;;;6.00;;
76795;SDS011;65745;50.278;18.192;2023-05-28T04:16:05;9.20;;;5.70;;
76795;SDS011;65745;50.278;18.192;2023-05-28T04:18:38;9.10;;;5.60;;
76795;SDS011;65745;50.278;18.192;2023-05-28T04:21:11;9.80;;;6.00;;
76795;SDS011;65745;50.278;18.192;2023-05-28T04:23:43;7.50;;;5.30;;
76795;SDS011;65745;50.278;18.192;2023-05-28T04:26:15;6.70;;;4.30;;
76795;SDS011;65745;50.278;18.192;2023-05-28T04:28:49;9.10;;;5.70;;
76795;SDS011;65745;50.278;18.192;2023-05-28T04:31:23;10.30;;;6.80;;
76795;SDS011;65745;50.278;18.192;2023-05-28T04:33:56;12.60;;;6.30;;
76795;SDS011;65745;50.278;18.192;2023-05-28T04:36:29;7.70;;;5.50;;
76795;SDS011;65745;50.278;18.192;2023-05-28T04:39:03;7.90;;;5.10;;
76795;SDS011;65745;50.278;18.192;2023-05-28T04:41:35;8.50;;;5.30;;
76795;SDS011;65745;50.278;18.192;2023-05-28T04:44:08;9.50;;;5.80;;
76795;SDS011;65745;50.278;18.192;2023-05-28T04:46:45;7.60;;;5.60;;
76795;SDS011;65745;50.278;18.192;2023-05-28T04:49:17;6.70;;;4.80;;
76795;SDS011;65745;50.278;18.192;2023-05-28T04:51:49;10.00;;;5.60;;
76795;SDS011;65745;50.278;18.192;2023-05-28T04:54:21;7.10;;;5.40;;
76795;SDS011;65745;50.278;18.192;2023-05-28T04:56:55;7.70;;;5.70;;
76795;SDS011;65745;50.278;18.192;2023-05-28T04:59:28;9.50;;;5.20;;
76795;SDS011;65745;50.278;18.192;2023-05-28T05:02:01;8.10;;;5.20;;
76795;SDS011;65745;50.278;18.192;2023-05-28T05:04:34;8.90;;;5.60;;
76795;SDS011;65745;50.278;18.192;2023-05-28T05:07:06;7.50;;;5.60;;
76795;SDS011;65745;50.278;18.192;2023-05-28T05:09:38;8.40;;;5.50;;
76795;SDS011;65745;50.278;18.192;2023-05-28T05:12:11;8.10;;;5.30;;
76795;SDS011;65745;50.278;18.192;2023-05-28T05:14:44;9.70;;;6.40;;
76795;SDS011;65745;50.278;18.192;2023-05-28T05:17:16;9.50;;;5.20;;
76795;SDS011;65745;50.278;18.192;2023-05-28T05:19:48;8.40;;;5.80;;
76795;SDS011;65745;50.278;18.192;2023-05-28T05:22:21;8.50;;;5.10;;
76795;SDS011;65745;50.278;18.192;2023-05-28T05:24:54;7.70;;;5.00;;
76795;SDS011;65745;50.278;18.192;2023-05-28T05:27:26;9.80;;;5.00;;
76795;SDS011;65745;50.278;18.192;2023-05-28T05:29:58;7.70;;;4.90;;
76795;SDS011;65745;50.278;18.192;2023-05-28T05:32:31;7.80;;;4.40;;
76795;SDS011;65745;50.278;18.192;2023-05-28T05:35:04;7.60;;;4.70;;
76795;SDS011;65745;50.278;18.192;2023-05-28T05:37:56;9.30;;;5.50;;
76795;SDS011;65745;50.278;18.192;2023-05-28T05:40:47;7.70;;;5.50;;
76795;SDS011;65745;50.278;18.192;2023-05-28T05:43:45;7.10;;;4.90;;
76795;SDS011;65745;50.278;18.192;2023-05-28T05:46:17;8.20;;;5.60;;
76795;SDS011;65745;50.278;18.192;2023-05-28T05:48:50;9.80;;;5.30;;
76795;SDS011;65745;50.278;18.192;2023-05-28T05:51:22;7.30;;;4.50;;
76795;SDS011;65745;50.278;18.192;2023-05-28T05:53:54;6.20;;;4.70;;
76795;SDS011;65745;50.278;18.192;2023-05-28T05:56:26;7.80;;;4.20;;
76795;SDS011;65745;50.278;18.192;2023-05-28T05:58:59;6.00;;;3.20;;
76795;SDS011;65745;50.278;18.192;2023-05-28T06:01:32;5.60;;;3.70;;
76795;SDS011;65745;50.278;18.192;2023-05-28T06:04:05;7.10;;;3.90;;
76795;SDS011;65745;50.278;18.192;2023-05-28T06:06:43;6.20;;;3.50;;
76795;SDS011;65745;50.278;18.192;2023-05-28T06:09:35;5.20;;;3.10;;
76795;SDS011;65745;50.278;18.192;2023-05-28T06:12:15;7.40;;;4.00;;
76795;SDS011;65745;50.278;18.192;2023-05-28T06:14:47;4.60;;;3.30;;
76795;SDS011;65745;50.278;18.192;2023-05-28T06:17:20;5.40;;;3.70;;
76795;SDS011;65745;50.278;18.192;2023-05-28T06:19:52;6.20;;;4.60;;
76795;SDS011;65745;50.278;18.192;2023-05-28T06:22:24;5.90;;;3.80;;
76795;SDS011;65745;50.278;18.192;2023-05-28T06:24:57;6.00;;;3.70;;
76795;SDS011;65745;50.278;18.192;2023-05-28T06:27:30;4.40;;;3.40;;
76795;SDS011;65745;50.278;18.192;2023-05-28T06:30:02;6.50;;;3.70;;
76795;SDS011;65745;50.278;18.192;2023-05-28T06:32:35;7.10;;;3.30;;
76795;SDS011;65745;50.278;18.192;2023-05-28T06:35:08;7.00;;;3.90;;
76795;SDS011;65745;50.278;18.192;2023-05-28T06:37:41;5.10;;;3.60;;
76795;SDS011;65745;50.278;18.192;2023-05-28T06:40:13;7.40;;;3.40;;
76795;SDS011;65745;50.278;18.192;2023-05-28T06:42:46;5.20;;;3.20;;
76795;SDS011;65745;50.278;18.192;2023-05-28T06:45:40;5.70;;;3.60;;
76795;SDS011;65745;50.278;18.192;2023-05-28T06:48:14;5.90;;;3.20;;
76795;SDS011;65745;50.278;18.192;2023-05-28T06:50:46;5.20;;;3.90;;
76795;SDS011;65745;50.278;18.192;2023-05-28T06:53:18;5.90;;;3.70;;
76795;SDS011;65745;50.278;18.192;2023-05-28T06:55:50;4.70;;;3.50;;
76795;SDS011;65745;50.278;18.192;2023-05-28T06:58:42;5.50;;;3.40;;
76795;SDS011;65745;50.278;18.192;2023-05-28T07:01:33;5.70;;;3.20;;
76795;SDS011;65745;50.278;18.192;2023-05-28T07:04:09;5.00;;;2.90;;
76795;SDS011;65745;50.278;18.192;2023-05-28T07:06:46;4.30;;;2.90;;
76795;SDS011;65745;50.278;18.192;2023-05-28T07:11:59;5.60;;;2.70;;
76795;SDS011;65745;50.278;18.192;2023-05-28T07:14:33;5.10;;;2.70;;
76795;SDS011;65745;50.278;18.192;2023-05-28T07:17:06;8.60;;;3.90;;
76795;SDS011;65745;50.278;18.192;2023-05-28T07:19:42;4.60;;;3.20;;
76795;SDS011;65745;50.278;18.192;2023-05-28T07:22:16;5.70;;;3.20;;
76795;SDS011;65745;50.278;18.192;2023-05-28T07:24:48;5.10;;;3.80;;
76795;SDS011;65745;50.278;18.192;2023-05-28T07:27:20;5.60;;;3.00;;
76795;SDS011;65745;50.278;18.192;2023-05-28T07:29:53;3.90;;;2.60;;
76795;SDS011;65745;50.278;18.192;2023-05-28T07:32:27;4.60;;;2.70;;
76795;SDS011;65745;50.278;18.192;2023-05-28T07:34:59;3.90;;;2.60;;
76795;SDS011;65745;50.278;18.192;2023-05-28T07:37:34;4.30;;;2.60;;
76795;SDS011;65745;50.278;18.192;2023-05-28T07:40:08;5.50;;;3.50;;
76795;SDS011;65745;50.278;18.192;2023-05-28T07:42:42;3.20;;;2.00;;
76795;SDS011;65745;50.278;18.192;2023-05-28T07:45:18;6.10;;;2.40;;
76795;SDS011;65745;50.278;18.192;2023-05-28T07:47:51;3.20;;;1.90;;
76795;SDS011;65745;50.278;18.192;2023-05-28T07:50:53;2.60;;;2.40;;
76795;SDS011;65745;50.278;18.192;2023-05-28T07:53:39;6.70;;;2.80;;
76795;SDS011;65745;50.278;18.192;2023-05-28T07:56:17;3.60;;;2.40;;
76795;SDS011;65745;50.278;18.192;2023-05-28T07:58:52;5.30;;;2.40;;
76795;SDS011;65745;50.278;18.192;2023-05-28T08:01:25;4.70;;;1.90;;
76795;SDS011;65745;50.278;18.192;2023-05-28T08:03:59;2.70;;;2.20;;
76795;SDS011;65745;50.278;18.192;2023-05-28T08:06:36;4.20;;;2.40;;
76795;SDS011;65745;50.278;18.192;2023-05-28T08:09:11;5.30;;;2.80;;
76795;SDS011;65745;50.278;18.192;2023-05-28T08:11:49;4.00;;;2.10;;
76795;SDS011;65745;50.278;18.192;2023-05-28T08:14:22;5.20;;;2.50;;
76795;SDS011;65745;50.278;18.192;2023-05-28T08:16:56;3.60;;;2.20;;
76795;SDS011;65745;50.278;18.192;2023-05-28T08:19:46;3.50;;;2.20;;
76795;SDS011;65745;50.278;18.192;2023-05-28T08:22:56;2.70;;;2.00;;
76795;SDS011;65745;50.278;18.192;2023-05-28T08:25:29;5.00;;;3.20;;
76795;SDS011;65745;50.278;18.192;2023-05-28T08:28:07;5.50;;;2.60;;
76795;SDS011;65745;50.278;18.192;2023-05-28T08:30:40;3.90;;;2.50;;
76795;SDS011;65745;50.278;18.192;2023-05-28T08:33:19;4.60;;;2.60;;
76795;SDS011;65745;50.278;18.192;2023-05-28T08:35:51;4.80;;;2.30;;
76795;SDS011;65745;50.278;18.192;2023-05-28T08:38:24;4.60;;;2.40;;
76795;SDS011;65745;50.278;18.192;2023-05-28T08:40:58;4.00;;;2.60;;
76795;SDS011;65745;50.278;18.192;2023-05-28T08:43:31;4.50;;;2.50;;
76795;SDS011;65745;50.278;18.192;2023-05-28T08:46:04;3.50;;;2.10;;
76795;SDS011;65745;50.278;18.192;2023-05-28T08:48:41;6.10;;;2.40;;
76795;SDS011;65745;50.278;18.192;2023-05-28T08:51:14;3.70;;;2.20;;
76795;SDS011;65745;50.278;18.192;2023-05-28T08:53:51;3.10;;;2.40;;
76795;SDS011;65745;50.278;18.192;2023-05-28T08:56:27;4.20;;;2.20;;
76795;SDS011;65745;50.278;18.192;2023-05-28T08:59:00;5.30;;;2.30;;
76795;SDS011;65745;50.278;18.192;2023-05-28T09:01:35;4.50;;;2.40;;
76795;SDS011;65745;50.278;18.192;2023-05-28T09:04:11;4.10;;;2.10;;
76795;SDS011;65745;50.278;18.192;2023-05-28T09:09:25;4.30;;;2.20;;
76795;SDS011;65745;50.278;18.192;2023-05-28T09:12:02;4.10;;;2.40;;
76795;SDS011;65745;50.278;18.192;2023-05-28T09:14:38;3.60;;;2.40;;
76795;SDS011;65745;50.278;18.192;2023-05-28T09:17:12;4.10;;;2.20;;
76795;SDS011;65745;50.278;18.192;2023-05-28T09:19:50;4.60;;;2.50;;
76795;SDS011;65745;50.278;18.192;2023-05-28T09:22:23;3.50;;;2.00;;
76795;SDS011;65745;50.278;18.192;2023-05-28T09:25:18;5.90;;;2.30;;
76795;SDS011;65745;50.278;18.192;2023-05-28T09:28:03;6.10;;;2.10;;
76795;SDS011;65745;50.278;18.192;2023-05-28T09:30:36;4.40;;;2.40;;
76795;SDS011;65745;50.278;18.192;2023-05-28T09:33:08;4.40;;;2.60;;
76795;SDS011;65745;50.278;18.192;2023-05-28T09:35:41;5.20;;;2.50;;
76795;SDS011;65745;50.278;18.192;2023-05-28T09:38:13;3.50;;;2.20;;
76795;SDS011;65745;50.278;18.192;2023-05-28T09:40:46;3.60;;;2.10;;
76795;SDS011;65745;50.278;18.192;2023-05-28T09:43:18;3.80;;;2.50;;
76795;SDS011;65745;50.278;18.192;2023-05-28T09:46:06;4.20;;;2.30;;
76795;SDS011;65745;50.278;18.192;2023-05-28T09:48:39;4.10;;;2.40;;
76795;SDS011;65745;50.278;18.192;2023-05-28T09:51:12;4.10;;;2.40;;
76795;SDS011;65745;50.278;18.192;2023-05-28T09:53:46;3.70;;;2.30;;
76795;SDS011;65745;50.278;18.192;2023-05-28T09:56:20;4.00;;;2.20;;
76795;SDS011;65745;50.278;18.192;2023-05-28T09:58:54;6.20;;;2.50;;
76795;SDS011;65745;50.278;18.192;2023-05-28T10:01:31;3.70;;;2.50;;
76795;SDS011;65745;50.278;18.192;2023-05-28T10:04:10;4.30;;;2.70;;
76795;SDS011;65745;50.278;18.192;2023-05-28T10:06:46;4.60;;;2.40;;
76795;SDS011;65745;50.278;18.192;2023-05-28T10:09:19;4.70;;;3.10;;
76795;SDS011;65745;50.278;18.192;2023-05-28T10:11:54;4.60;;;2.70;;
76795;SDS011;65745;50.278;18.192;2023-05-28T10:14:39;3.60;;;2.80;;
76795;SDS011;65745;50.278;18.192;2023-05-28T10:17:11;4.00;;;2.60;;
76795;SDS011;65745;50.278;18.192;2023-05-28T10:19:46;7.20;;;3.10;;
76795;SDS011;65745;50.278;18.192;2023-05-28T10:22:19;3.90;;;2.80;;
76795;SDS011;65745;50.278;18.192;2023-05-28T10:24:52;4.30;;;2.70;;
76795;SDS011;65745;50.278;18.192;2023-05-28T10:27:29;3.10;;;2.60;;
76795;SDS011;65745;50.278;18.192;2023-05-28T10:30:04;4.20;;;2.60;;
76795;SDS011;65745;50.278;18.192;2023-05-28T10:32:39;4.30;;;3.10;;
76795;SDS011;65745;50.278;18.192;2023-05-28T10:35:12;4.70;;;2.60;;
76795;SDS011;65745;50.278;18.192;2023-05-28T10:37:45;3.70;;;2.80;;
76795;SDS011;65745;50.278;18.192;2023-05-28T10:40:22;4.80;;;2.90;;
76795;SDS011;65745;50.278;18.192;2023-05-28T10:42:55;5.20;;;2.80;;
76795;SDS011;65745;50.278;18.192;2023-05-28T10:45:35;4.20;;;2.70;;
76795;SDS011;65745;50.278;18.192;2023-05-28T10:48:12;4.70;;;2.80;;
76795;SDS011;65745;50.278;18.192;2023-05-28T10:50:57;4.10;;;2.50;;
76795;SDS011;65745;50.278;18.192;2023-05-28T10:53:29;3.70;;;2.70;;
76795;SDS011;65745;50.278;18.192;2023-05-28T10:56:02;4.00;;;2.70;;
76795;SDS011;65745;50.278;18.192;2023-05-28T10:58:34;3.90;;;2.80;;
76795;SDS011;65745;50.278;18.192;2023-05-28T11:01:18;4.70;;;2.60;;
76795;SDS011;65745;50.278;18.192;2023-05-28T11:03:53;4.10;;;2.40;;
76795;SDS011;65745;50.278;18.192;2023-05-28T11:06:25;5.20;;;2.70;;
76795;SDS011;65745;50.278;18.192;2023-05-28T11:08:58;3.50;;;2.70;;
76795;SDS011;65745;50.278;18.192;2023-05-28T11:11:31;6.10;;;2.90;;
76795;SDS011;65745;50.278;18.192;2023-05-28T11:14:09;4.00;;;2.70;;
76795;SDS011;65745;50.278;18.192;2023-05-28T11:16:45;5.80;;;3.00;;
76795;SDS011;65745;50.278;18.192;2023-05-28T11:19:18;6.30;;;2.60;;
76795;SDS011;65745;50.278;18.192;2023-05-28T11:21:50;5.10;;;2.70;;
76795;SDS011;65745;50.278;18.192;2023-05-28T11:24:24;4.90;;;2.80;;
76795;SDS011;65745;50.278;18.192;2023-05-28T11:26:57;4.00;;;2.50;;
76795;SDS011;65745;50.278;18.192;2023-05-28T11:29:30;4.70;;;2.70;;
76795;SDS011;65745;50.278;18.192;2023-05-28T11:32:03;3.90;;;2.90;;
76795;SDS011;65745;50.278;18.192;2023-05-28T11:34:37;5.10;;;2.50;;
76795;SDS011;65745;50.278;18.192;2023-05-28T11:37:10;5.40;;;2.90;;
76795;SDS011;65745;50.278;18.192;2023-05-28T11:39:50;4.30;;;2.60;;
76795;SDS011;65745;50.278;18.192;2023-05-28T11:42:24;5.00;;;2.60;;
76795;SDS011;65745;50.278;18.192;2023-05-28T11:44:57;5.80;;;2.70;;
76795;SDS011;65745;50.278;18.192;2023-05-28T11:47:31;4.00;;;2.50;;
76795;SDS011;65745;50.278;18.192;2023-05-28T11:50:07;4.30;;;2.40;;
76795;SDS011;65745;50.278;18.192;2023-05-28T11:52:41;5.40;;;3.20;;
76795;SDS011;65745;50.278;18.192;2023-05-28T11:55:15;6.40;;;3.20;;
76795;SDS011;65745;50.278;18.192;2023-05-28T11:57:52;4.00;;;2.40;;
76795;SDS011;65745;50.278;18.192;2023-05-28T12:00:30;4.40;;;2.60;;
76795;SDS011;65745;50.278;18.192;2023-05-28T12:03:05;4.10;;;2.60;;
76795;SDS011;65745;50.278;18.192;2023-05-28T12:05:41;4.80;;;2.90;;
76795;SDS011;65745;50.278;18.192;2023-05-28T12:08:16;5.70;;;2.60;;
76795;SDS011;65745;50.278;18.192;2023-05-28T12:10:49;7.10;;;2.90;;
76795;SDS011;65745;50.278;18.192;2023-05-28T12:13:22;4.30;;;2.80;;
76795;SDS011;65745;50.278;18.192;2023-05-28T12:16:07;4.60;;;2.60;;
76795;SDS011;65745;50.278;18.192;2023-05-28T12:18:42;4.50;;;2.60;;
76795;SDS011;65745;50.278;18.192;2023-05-28T12:21:14;5.20;;;2.80;;
76795;SDS011;65745;50.278;18.192;2023-05-28T12:23:49;3.80;;;2.60;;
76795;SDS011;65745;50.278;18.192;2023-05-28T12:26:24;6.20;;;2.70;;
76795;SDS011;65745;50.278;18.192;2023-05-28T12:28:56;3.80;;;2.70;;
76795;SDS011;65745;50.278;18.192;2023-05-28T12:31:29;5.80;;;2.40;;
76795;SDS011;65745;50.278;18.192;2023-05-28T12:34:01;4.20;;;2.60;;
76795;SDS011;65745;50.278;18.192;2023-05-28T12:36:34;4.40;;;2.60;;
76795;SDS011;65745;50.278;18.192;2023-05-28T12:39:07;3.80;;;2.40;;
76795;SDS011;65745;50.278;18.192;2023-05-28T12:41:39;4.80;;;2.60;;
76795;SDS011;65745;50.278;18.192;2023-05-28T12:44:11;4.30;;;2.60;;
76795;SDS011;65745;50.278;18.192;2023-05-28T12:46:45;4.20;;;2.60;;
76795;SDS011;65745;50.278;18.192;2023-05-28T12:49:19;3.90;;;2.80;;
76795;SDS011;65745;50.278;18.192;2023-05-28T12:51:51;4.30;;;2.70;;
76795;SDS011;65745;50.278;18.192;2023-05-28T12:54:24;11.10;;;3.30;;
76795;SDS011;65745;50.278;18.192;2023-05-28T12:57:00;10.20;;;3.20;;
76795;SDS011;65745;50.278;18.192;2023-05-28T12:59:32;4.10;;;2.60;;
76795;SDS011;65745;50.278;18.192;2023-05-28T13:02:05;5.90;;;2.60;;
76795;SDS011;65745;50.278;18.192;2023-05-28T13:04:38;4.00;;;2.90;;
76795;SDS011;65745;50.278;18.192;2023-05-28T13:07:10;4.60;;;3.10;;
76795;SDS011;65745;50.278;18.192;2023-05-28T13:09:42;6.50;;;2.70;;
76795;SDS011;65745;50.278;18.192;2023-05-28T13:12:15;4.10;;;2.70;;
76795;SDS011;65745;50.278;18.192;2023-05-28T13:14:47;2.90;;;2.40;;
76795;SDS011;65745;50.278;18.192;2023-05-28T13:17:19;5.00;;;2.70;;
76795;SDS011;65745;50.278;18.192;2023-05-28T13:19:52;4.10;;;2.40;;
76795;SDS011;65745;50.278;18.192;2023-05-28T13:22:24;5.40;;;3.00;;
76795;SDS011;65745;50.278;18.192;2023-05-28T13:24:56;4.80;;;2.60;;
76795;SDS011;65745;50.278;18.192;2023-05-28T13:27:29;9.10;;;3.50;;
76795;SDS011;65745;50.278;18.192;2023-05-28T13:30:01;3.50;;;2.40;;
76795;SDS011;65745;50.278;18.192;2023-05-28T13:32:35;4.10;;;2.30;;
76795;SDS011;65745;50.278;18.192;2023-05-28T13:35:08;5.90;;;2.80;;
76795;SDS011;65745;50.278;18.192;2023-05-28T13:37:41;4.20;;;2.50;;
76795;SDS011;65745;50.278;18.192;2023-05-28T13:40:14;4.70;;;2.40;;
76795;SDS011;65745;50.278;18.192;2023-05-28T13:42:49;7.00;;;3.60;;
76795;SDS011;65745;50.278;18.192;2023-05-28T13:45:22;4.20;;;2.20;;
76795;SDS011;65745;50.278;18.192;2023-05-28T13:47:55;3.60;;;2.30;;
76795;SDS011;65745;50.278;18.192;2023-05-28T13:50:27;4.50;;;2.30;;
76795;SDS011;65745;50.278;18.192;2023-05-28T13:52:59;5.80;;;2.50;;
76795;SDS011;65745;50.278;18.192;2023-05-28T13:55:32;3.30;;;2.00;;
76795;SDS011;65745;50.278;18.192;2023-05-28T13:58:04;3.70;;;2.50;;
76795;SDS011;65745;50.278;18.192;2023-05-28T14:00:37;4.80;;;2.40;;
76795;SDS011;65745;50.278;18.192;2023-05-28T14:03:10;7.80;;;2.60;;
76795;SDS011;65745;50.278;18.192;2023-05-28T14:05:44;5.50;;;2.40;;
76795;SDS011;65745;50.278;18.192;2023-05-28T14:08:16;7.40;;;2.70;;
76795;SDS011;65745;50.278;18.192;2023-05-28T14:10:48;4.40;;;2.30;;
76795;SDS011;65745;50.278;18.192;2023-05-28T14:13:22;4.20;;;2.60;;
76795;SDS011;65745;50.278;18.192;2023-05-28T14:16:01;4.20;;;2.70;;
76795;SDS011;65745;50.278;18.192;2023-05-28T14:18:33;4.00;;;2.10;;
76795;SDS011;65745;50.278;18.192;2023-05-28T14:21:06;5.80;;;2.60;;
76795;SDS011;65745;50.278;18.192;2023-05-28T14:23:38;5.60;;;2.50;;
76795;SDS011;65745;50.278;18.192;2023-05-28T14:26:10;4.30;;;2.60;;
76795;SDS011;65745;50.278;18.192;2023-05-28T14:28:42;5.70;;;2.70;;
76795;SDS011;65745;50.278;18.192;2023-05-28T14:31:15;4.40;;;2.10;;
76795;SDS011;65745;50.278;18.192;2023-05-28T14:33:47;4.30;;;2.60;;
76795;SDS011;65745;50.278;18.192;2023-05-28T14:36:19;4.00;;;3.00;;
76795;SDS011;65745;50.278;18.192;2023-05-28T14:38:51;6.90;;;2.60;;
76795;SDS011;65745;50.278;18.192;2023-05-28T14:41:24;3.30;;;2.20;;
76795;SDS011;65745;50.278;18.192;2023-05-28T14:43:56;6.90;;;2.90;;
76795;SDS011;65745;50.278;18.192;2023-05-28T14:46:28;9.70;;;2.90;;
76795;SDS011;65745;50.278;18.192;2023-05-28T14:49:01;3.60;;;2.20;;
76795;SDS011;65745;50.278;18.192;2023-05-28T14:51:33;7.70;;;2.70;;
76795;SDS011;65745;50.278;18.192;2023-05-28T14:54:06;3.40;;;2.10;;
76795;SDS011;65745;50.278;18.192;2023-05-28T14:56:38;2.60;;;2.00;;
76795;SDS011;65745;50.278;18.192;2023-05-28T14:59:11;3.10;;;1.90;;
76795;SDS011;65745;50.278;18.192;2023-05-28T15:01:43;3.30;;;2.20;;
76795;SDS011;65745;50.278;18.192;2023-05-28T15:04:16;5.10;;;2.50;;
76795;SDS011;65745;50.278;18.192;2023-05-28T15:06:48;4.00;;;2.10;;
76795;SDS011;65745;50.278;18.192;2023-05-28T15:09:20;5.40;;;2.90;;
76795;SDS011;65745;50.278;18.192;2023-05-28T15:11:52;4.80;;;2.30;;
76795;SDS011;65745;50.278;18.192;2023-05-28T15:14:25;6.20;;;2.50;;
76795;SDS011;65745;50.278;18.192;2023-05-28T15:16:59;3.90;;;2.60;;
76795;SDS011;65745;50.278;18.192;2023-05-28T15:19:32;4.70;;;3.00;;